sensor_id;sensor_type;location;lat;lon;timestamp;temperature;humidity
9425;DHT22;17139;52.140;11.636;2022-07-23T00:01:44;17.70;50.00
9425;DHT22;17139;52.140;11.636;2022-07-23T00:04:13;17.70;50.00
9425;DHT22;17139;52.140;11.636;2022-07-23T00:06:40;17.70;50.00
9425;DHT22;17139;52.140;11.636;2022-07-23T00:09:09;17.80;49.90
9425;DHT22;17139;52.140;11.636;2022-07-23T00:11:36;17.80;49.90
9425;DHT22;17139;52.140;11.636;2022-07-23T00:14:04;17.80;49.80
9425;DHT22;17139;52.140;11.636;2022-07-23T00:16:31;17.80;49.80
9425;DHT22;17139;52.140;11.636;2022-07-23T00:18:58;17.80;49.80
9425;DHT22;17139;52.140;11.636;2022-07-23T00:21:27;17.70;49.90
9425;DHT22;17139;52.140;11.636;2022-07-23T00:23:54;18.30;50.80
9425;DHT22;17139;52.140;11.636;2022-07-23T00:26:23;18.20;49.60
9425;DHT22;17139;52.140;11.636;2022-07-23T00:28:50;18.10;49.80
9425;DHT22;17139;52.140;11.636;2022-07-23T00:31:18;18.40;50.70
9425;DHT22;17139;52.140;11.636;2022-07-23T00:33:45;18.20;49.60
9425;DHT22;17139;52.140;11.636;2022-07-23T00:36:12;18.20;49.80
9425;DHT22;17139;52.140;11.636;2022-07-23T00:38:39;18.10;50.00
9425;DHT22;17139;52.140;11.636;2022-07-23T00:41:07;18.10;50.00
9425;DHT22;17139;52.140;11.636;2022-07-23T00:43:36;18.10;50.00
9425;DHT22;17139;52.140;11.636;2022-07-23T00:46:03;18.00;49.90
9425;DHT22;17139;52.140;11.636;2022-07-23T00:48:31;18.00;50.00
9425;DHT22;17139;52.140;11.636;2022-07-23T00:50:58;18.00;50.10
9425;DHT22;17139;52.140;11.636;2022-07-23T00:53:26;18.00;50.00
9425;DHT22;17139;52.140;11.636;2022-07-23T00:55:53;18.80;51.00
9425;DHT22;17139;52.140;11.636;2022-07-23T00:58:21;18.50;49.80
9425;DHT22;17139;52.140;11.636;2022-07-23T01:00:50;18.30;49.70
9425;DHT22;17139;52.140;11.636;2022-07-23T01:03:17;18.80;50.60
9425;DHT22;17139;52.140;11.636;2022-07-23T01:05:44;18.60;49.90
9425;DHT22;17139;52.140;11.636;2022-07-23T01:08:13;18.40;49.80
9425;DHT22;17139;52.140;11.636;2022-07-23T01:10:41;18.30;49.90
9425;DHT22;17139;52.140;11.636;2022-07-23T01:13:09;18.20;50.10
9425;DHT22;17139;52.140;11.636;2022-07-23T01:15:38;18.00;50.10
9425;DHT22;17139;52.140;11.636;2022-07-23T01:18:08;17.90;50.20
9425;DHT22;17139;52.140;11.636;2022-07-23T01:20:36;17.90;50.40
9425;DHT22;17139;52.140;11.636;2022-07-23T01:23:05;17.90;50.40
9425;DHT22;17139;52.140;11.636;2022-07-23T01:25:33;18.00;50.60
9425;DHT22;17139;52.140;11.636;2022-07-23T01:28:00;17.90;50.20
9425;DHT22;17139;52.140;11.636;2022-07-23T01:30:28;17.90;50.20
9425;DHT22;17139;52.140;11.636;2022-07-23T01:32:55;17.90;50.30
9425;DHT22;17139;52.140;11.636;2022-07-23T01:35:22;17.90;50.20
9425;DHT22;17139;52.140;11.636;2022-07-23T01:37:49;17.90;50.20
9425;DHT22;17139;52.140;11.636;2022-07-23T01:40:18;17.90;50.20
9425;DHT22;17139;52.140;11.636;2022-07-23T01:42:45;17.90;50.20
9425;DHT22;17139;52.140;11.636;2022-07-23T01:45:13;17.90;50.30
9425;DHT22;17139;52.140;11.636;2022-07-23T01:47:40;17.80;50.20
9425;DHT22;17139;52.140;11.636;2022-07-23T01:50:08;17.80;50.20
9425;DHT22;17139;52.140;11.636;2022-07-23T01:52:36;17.80;50.40
9425;DHT22;17139;52.140;11.636;2022-07-23T01:55:04;17.80;50.40
9425;DHT22;17139;52.140;11.636;2022-07-23T01:57:33;17.90;51.00
9425;DHT22;17139;52.140;11.636;2022-07-23T02:00:01;17.90;50.50
9425;DHT22;17139;52.140;11.636;2022-07-23T02:02:29;17.80;50.50
9425;DHT22;17139;52.140;11.636;2022-07-23T02:04:56;17.80;50.50
9425;DHT22;17139;52.140;11.636;2022-07-23T02:07:23;17.80;50.70
9425;DHT22;17139;52.140;11.636;2022-07-23T02:09:50;17.80;50.70
9425;DHT22;17139;52.140;11.636;2022-07-23T02:12:18;17.80;50.60
9425;DHT22;17139;52.140;11.636;2022-07-23T02:14:46;17.80;50.60
9425;DHT22;17139;52.140;11.636;2022-07-23T02:17:14;17.80;50.60
9425;DHT22;17139;52.140;11.636;2022-07-23T02:19:41;17.80;50.70
9425;DHT22;17139;52.140;11.636;2022-07-23T02:22:08;17.70;50.80
9425;DHT22;17139;52.140;11.636;2022-07-23T02:24:36;17.70;50.90
9425;DHT22;17139;52.140;11.636;2022-07-23T02:27:03;17.60;50.90
9425;DHT22;17139;52.140;11.636;2022-07-23T02:29:30;17.60;51.90
9425;DHT22;17139;52.140;11.636;2022-07-23T02:31:59;17.50;51.40
9425;DHT22;17139;52.140;11.636;2022-07-23T02:34:26;17.40;51.80
9425;DHT22;17139;52.140;11.636;2022-07-23T02:36:54;17.40;51.90
9425;DHT22;17139;52.140;11.636;2022-07-23T02:39:21;17.30;52.00
9425;DHT22;17139;52.140;11.636;2022-07-23T02:41:49;17.30;52.10
9425;DHT22;17139;52.140;11.636;2022-07-23T02:44:16;17.20;51.90
9425;DHT22;17139;52.140;11.636;2022-07-23T02:46:44;17.20;52.10
9425;DHT22;17139;52.140;11.636;2022-07-23T02:49:12;17.10;52.30
9425;DHT22;17139;52.140;11.636;2022-07-23T02:51:40;17.10;52.50
9425;DHT22;17139;52.140;11.636;2022-07-23T02:54:08;17.10;52.40
9425;DHT22;17139;52.140;11.636;2022-07-23T02:56:35;16.90;52.40
9425;DHT22;17139;52.140;11.636;2022-07-23T02:59:02;16.90;52.70
9425;DHT22;17139;52.140;11.636;2022-07-23T03:01:30;16.90;52.80
9425;DHT22;17139;52.140;11.636;2022-07-23T03:03:57;16.90;53.00
9425;DHT22;17139;52.140;11.636;2022-07-23T03:06:26;17.00;53.10
9425;DHT22;17139;52.140;11.636;2022-07-23T03:08:53;17.00;53.00
9425;DHT22;17139;52.140;11.636;2022-07-23T03:11:20;17.90;55.60
9425;DHT22;17139;52.140;11.636;2022-07-23T03:13:48;17.70;53.50
9425;DHT22;17139;52.140;11.636;2022-07-23T03:16:15;17.40;53.30
9425;DHT22;17139;52.140;11.636;2022-07-23T03:18:42;17.30;53.40
9425;DHT22;17139;52.140;11.636;2022-07-23T03:21:09;17.20;53.30
9425;DHT22;17139;52.140;11.636;2022-07-23T03:23:38;17.10;53.50
9425;DHT22;17139;52.140;11.636;2022-07-23T03:26:06;17.10;53.60
9425;DHT22;17139;52.140;11.636;2022-07-23T03:28:33;17.10;53.50
9425;DHT22;17139;52.140;11.636;2022-07-23T03:31:00;17.10;53.50
9425;DHT22;17139;52.140;11.636;2022-07-23T03:33:27;17.00;53.40
9425;DHT22;17139;52.140;11.636;2022-07-23T03:35:55;18.00;56.50
9425;DHT22;17139;52.140;11.636;2022-07-23T03:38:22;17.70;53.80
9425;DHT22;17139;52.140;11.636;2022-07-23T03:40:51;17.50;53.80
9425;DHT22;17139;52.140;11.636;2022-07-23T03:43:18;18.10;56.00
9425;DHT22;17139;52.140;11.636;2022-07-23T03:45:45;17.80;54.30
9425;DHT22;17139;52.140;11.636;2022-07-23T03:48:12;17.50;54.30
9425;DHT22;17139;52.140;11.636;2022-07-23T03:50:40;17.40;54.30
9425;DHT22;17139;52.140;11.636;2022-07-23T03:53:07;17.30;54.30
9425;DHT22;17139;52.140;11.636;2022-07-23T03:55:35;17.20;54.40
9425;DHT22;17139;52.140;11.636;2022-07-23T03:58:04;17.20;54.60
9425;DHT22;17139;52.140;11.636;2022-07-23T04:00:31;17.20;54.60
9425;DHT22;17139;52.140;11.636;2022-07-23T04:02:58;17.20;54.40
9425;DHT22;17139;52.140;11.636;2022-07-23T04:05:26;17.10;54.30
9425;DHT22;17139;52.140;11.636;2022-07-23T04:07:53;17.70;56.90
9425;DHT22;17139;52.140;11.636;2022-07-23T04:10:21;17.50;54.90
9425;DHT22;17139;52.140;11.636;2022-07-23T04:12:48;17.30;54.90
9425;DHT22;17139;52.140;11.636;2022-07-23T04:15:16;17.50;56.40
9425;DHT22;17139;52.140;11.636;2022-07-23T04:17:44;17.40;55.00
9425;DHT22;17139;52.140;11.636;2022-07-23T04:20:12;17.20;55.00
9425;DHT22;17139;52.140;11.636;2022-07-23T04:22:40;17.10;54.90
9425;DHT22;17139;52.140;11.636;2022-07-23T04:25:07;17.00;55.00
9425;DHT22;17139;52.140;11.636;2022-07-23T04:27:35;17.00;55.00
9425;DHT22;17139;52.140;11.636;2022-07-23T04:30:02;17.00;55.10
9425;DHT22;17139;52.140;11.636;2022-07-23T04:32:31;16.90;55.00
9425;DHT22;17139;52.140;11.636;2022-07-23T04:34:58;16.90;55.00
9425;DHT22;17139;52.140;11.636;2022-07-23T04:37:25;16.90;54.90
9425;DHT22;17139;52.140;11.636;2022-07-23T04:39:52;17.60;56.90
9425;DHT22;17139;52.140;11.636;2022-07-23T04:42:20;17.40;55.10
9425;DHT22;17139;52.140;11.636;2022-07-23T04:44:47;17.30;55.00
9425;DHT22;17139;52.140;11.636;2022-07-23T04:47:14;17.60;56.80
9425;DHT22;17139;52.140;11.636;2022-07-23T04:49:42;17.40;55.20
9425;DHT22;17139;52.140;11.636;2022-07-23T04:52:09;17.30;55.20
9425;DHT22;17139;52.140;11.636;2022-07-23T04:54:36;17.20;55.20
9425;DHT22;17139;52.140;11.636;2022-07-23T04:57:04;17.10;55.20
9425;DHT22;17139;52.140;11.636;2022-07-23T04:59:31;17.00;55.20
9425;DHT22;17139;52.140;11.636;2022-07-23T05:01:58;17.00;55.30
9425;DHT22;17139;52.140;11.636;2022-07-23T05:04:25;16.90;55.40
9425;DHT22;17139;52.140;11.636;2022-07-23T05:06:53;16.90;55.40
9425;DHT22;17139;52.140;11.636;2022-07-23T05:09:20;16.80;55.40
9425;DHT22;17139;52.140;11.636;2022-07-23T05:11:48;16.80;55.50
9425;DHT22;17139;52.140;11.636;2022-07-23T05:14:15;16.80;55.50
9425;DHT22;17139;52.140;11.636;2022-07-23T05:16:42;16.80;55.60
9425;DHT22;17139;52.140;11.636;2022-07-23T05:19:09;16.80;55.60
9425;DHT22;17139;52.140;11.636;2022-07-23T05:21:36;17.70;57.60
9425;DHT22;17139;52.140;11.636;2022-07-23T05:24:06;17.50;55.60
9425;DHT22;17139;52.140;11.636;2022-07-23T05:26:33;17.30;55.50
9425;DHT22;17139;52.140;11.636;2022-07-23T05:29:00;17.20;55.60
9425;DHT22;17139;52.140;11.636;2022-07-23T05:31:27;17.20;55.60
9425;DHT22;17139;52.140;11.636;2022-07-23T05:33:55;17.10;55.60
9425;DHT22;17139;52.140;11.636;2022-07-23T05:36:22;17.10;55.70
9425;DHT22;17139;52.140;11.636;2022-07-23T05:38:49;17.10;55.80
9425;DHT22;17139;52.140;11.636;2022-07-23T05:41:17;17.10;55.60
9425;DHT22;17139;52.140;11.636;2022-07-23T05:43:44;17.20;55.60
9425;DHT22;17139;52.140;11.636;2022-07-23T05:46:12;17.80;56.90
9425;DHT22;17139;52.140;11.636;2022-07-23T05:48:39;17.60;55.20
9425;DHT22;17139;52.140;11.636;2022-07-23T05:51:07;17.40;55.10
9425;DHT22;17139;52.140;11.636;2022-07-23T05:53:34;17.60;56.20
9425;DHT22;17139;52.140;11.636;2022-07-23T05:56:02;17.50;55.20
9425;DHT22;17139;52.140;11.636;2022-07-23T05:58:30;17.40;55.30
9425;DHT22;17139;52.140;11.636;2022-07-23T06:00:57;17.40;55.40
9425;DHT22;17139;52.140;11.636;2022-07-23T06:03:24;17.40;55.20
9425;DHT22;17139;52.140;11.636;2022-07-23T06:05:52;17.40;55.20
9425;DHT22;17139;52.140;11.636;2022-07-23T06:08:19;17.50;55.10
9425;DHT22;17139;52.140;11.636;2022-07-23T06:10:46;17.50;55.00
9425;DHT22;17139;52.140;11.636;2022-07-23T06:13:13;17.60;55.10
9425;DHT22;17139;52.140;11.636;2022-07-23T06:15:42;17.70;54.90
9425;DHT22;17139;52.140;11.636;2022-07-23T06:18:09;17.90;54.60
9425;DHT22;17139;52.140;11.636;2022-07-23T06:20:36;18.80;54.80
9425;DHT22;17139;52.140;11.636;2022-07-23T06:23:03;18.60;53.80
9425;DHT22;17139;52.140;11.636;2022-07-23T06:25:30;18.50;54.10
9425;DHT22;17139;52.140;11.636;2022-07-23T06:27:57;19.00;54.70
9425;DHT22;17139;52.140;11.636;2022-07-23T06:30:25;18.90;53.80
9425;DHT22;17139;52.140;11.636;2022-07-23T06:32:54;18.70;53.80
9425;DHT22;17139;52.140;11.636;2022-07-23T06:35:21;18.60;54.10
9425;DHT22;17139;52.140;11.636;2022-07-23T06:37:49;19.50;54.20
9425;DHT22;17139;52.140;11.636;2022-07-23T06:40:16;19.10;53.40
9425;DHT22;17139;52.140;11.636;2022-07-23T06:42:43;18.90;53.80
9425;DHT22;17139;52.140;11.636;2022-07-23T06:45:10;18.70;54.40
9425;DHT22;17139;52.140;11.636;2022-07-23T06:47:37;18.70;54.20
9425;DHT22;17139;52.140;11.636;2022-07-23T06:50:08;19.10;54.20
9425;DHT22;17139;52.140;11.636;2022-07-23T06:52:35;18.90;53.80
9425;DHT22;17139;52.140;11.636;2022-07-23T06:55:03;18.80;54.10
9425;DHT22;17139;52.140;11.636;2022-07-23T06:57:30;19.30;54.20
9425;DHT22;17139;52.140;11.636;2022-07-23T06:59:57;19.30;53.40
9425;DHT22;17139;52.140;11.636;2022-07-23T07:02:24;19.30;53.40
9425;DHT22;17139;52.140;11.636;2022-07-23T07:04:51;20.40;53.10
9425;DHT22;17139;52.140;11.636;2022-07-23T07:07:21;20.20;52.30
9425;DHT22;17139;52.140;11.636;2022-07-23T07:09:48;20.00;52.50
9425;DHT22;17139;52.140;11.636;2022-07-23T07:12:15;19.90;52.50
9425;DHT22;17139;52.140;11.636;2022-07-23T07:14:43;20.60;51.60
9425;DHT22;17139;52.140;11.636;2022-07-23T07:17:10;20.30;52.00
9425;DHT22;17139;52.140;11.636;2022-07-23T07:19:37;20.10;52.20
9425;DHT22;17139;52.140;11.636;2022-07-23T07:22:04;20.70;52.00
9425;DHT22;17139;52.140;11.636;2022-07-23T07:24:33;20.40;51.90
9425;DHT22;17139;52.140;11.636;2022-07-23T07:27:00;20.20;52.00
9425;DHT22;17139;52.140;11.636;2022-07-23T07:29:28;20.10;52.10
9425;DHT22;17139;52.140;11.636;2022-07-23T07:31:55;20.00;52.20
9425;DHT22;17139;52.140;11.636;2022-07-23T07:34:22;20.00;52.50
9425;DHT22;17139;52.140;11.636;2022-07-23T07:36:49;19.90;52.40
9425;DHT22;17139;52.140;11.636;2022-07-23T07:39:16;19.70;52.20
9425;DHT22;17139;52.140;11.636;2022-07-23T07:41:45;20.00;52.10
9425;DHT22;17139;52.140;11.636;2022-07-23T07:44:12;19.80;52.00
9425;DHT22;17139;52.140;11.636;2022-07-23T07:46:39;19.50;52.40
9425;DHT22;17139;52.140;11.636;2022-07-23T07:49:07;19.90;52.20
9425;DHT22;17139;52.140;11.636;2022-07-23T07:51:34;19.70;51.60
9425;DHT22;17139;52.140;11.636;2022-07-23T07:54:01;19.40;51.90
9425;DHT22;17139;52.140;11.636;2022-07-23T07:56:28;19.20;52.10
9425;DHT22;17139;52.140;11.636;2022-07-23T07:58:57;19.00;52.30
9425;DHT22;17139;52.140;11.636;2022-07-23T08:01:25;18.90;52.50
9425;DHT22;17139;52.140;11.636;2022-07-23T08:03:53;18.80;52.60
9425;DHT22;17139;52.140;11.636;2022-07-23T08:06:20;18.70;52.70
9425;DHT22;17139;52.140;11.636;2022-07-23T08:08:48;18.80;52.80
9425;DHT22;17139;52.140;11.636;2022-07-23T08:11:15;18.90;52.60
9425;DHT22;17139;52.140;11.636;2022-07-23T08:13:42;19.00;52.50
9425;DHT22;17139;52.140;11.636;2022-07-23T08:16:11;19.10;52.40
9425;DHT22;17139;52.140;11.636;2022-07-23T08:18:39;19.40;52.40
9425;DHT22;17139;52.140;11.636;2022-07-23T08:21:06;19.60;52.20
9425;DHT22;17139;52.140;11.636;2022-07-23T08:23:33;19.70;51.80
9425;DHT22;17139;52.140;11.636;2022-07-23T08:26:01;19.80;51.70
9425;DHT22;17139;52.140;11.636;2022-07-23T08:28:29;20.00;51.40
9425;DHT22;17139;52.140;11.636;2022-07-23T08:30:59;20.20;51.30
9425;DHT22;17139;52.140;11.636;2022-07-23T08:33:29;20.20;51.10
9425;DHT22;17139;52.140;11.636;2022-07-23T08:35:56;20.40;51.00
9425;DHT22;17139;52.140;11.636;2022-07-23T08:38:24;20.60;50.90
9425;DHT22;17139;52.140;11.636;2022-07-23T08:40:54;20.80;50.90
9425;DHT22;17139;52.140;11.636;2022-07-23T08:43:24;21.00;50.70
9425;DHT22;17139;52.140;11.636;2022-07-23T08:45:53;21.30;50.70
9425;DHT22;17139;52.140;11.636;2022-07-23T08:48:24;22.40;48.10
9425;DHT22;17139;52.140;11.636;2022-07-23T08:50:54;22.20;48.90
9425;DHT22;17139;52.140;11.636;2022-07-23T08:53:22;22.00;49.30
9425;DHT22;17139;52.140;11.636;2022-07-23T08:55:51;21.80;49.50
9425;DHT22;17139;52.140;11.636;2022-07-23T08:58:20;21.60;49.90
9425;DHT22;17139;52.140;11.636;2022-07-23T09:00:48;21.40;50.20
9425;DHT22;17139;52.140;11.636;2022-07-23T09:03:17;21.20;50.10
9425;DHT22;17139;52.140;11.636;2022-07-23T09:05:46;21.20;50.20
9425;DHT22;17139;52.140;11.636;2022-07-23T09:08:16;21.20;50.30
9425;DHT22;17139;52.140;11.636;2022-07-23T09:10:49;21.90;48.40
9425;DHT22;17139;52.140;11.636;2022-07-23T09:13:34;21.80;49.10
9425;DHT22;17139;52.140;11.636;2022-07-23T09:16:04;21.80;49.40
9425;DHT22;17139;52.140;11.636;2022-07-23T09:18:35;22.50;47.10
9425;DHT22;17139;52.140;11.636;2022-07-23T09:21:12;22.20;48.10
9425;DHT22;17139;52.140;11.636;2022-07-23T09:23:43;22.00;48.70
9425;DHT22;17139;52.140;11.636;2022-07-23T09:26:32;21.90;48.70
9425;DHT22;17139;52.140;11.636;2022-07-23T09:29:11;21.90;48.90
9425;DHT22;17139;52.140;11.636;2022-07-23T09:31:47;21.80;49.10
9425;DHT22;17139;52.140;11.636;2022-07-23T09:34:20;21.80;48.90
9425;DHT22;17139;52.140;11.636;2022-07-23T09:36:48;22.30;46.70
9425;DHT22;17139;52.140;11.636;2022-07-23T09:39:26;22.40;46.60
9425;DHT22;17139;52.140;11.636;2022-07-23T09:41:53;22.60;46.10
9425;DHT22;17139;52.140;11.636;2022-07-23T09:44:21;22.80;45.50
9425;DHT22;17139;52.140;11.636;2022-07-23T09:46:49;22.50;47.00
9425;DHT22;17139;52.140;11.636;2022-07-23T09:49:19;22.20;47.70
9425;DHT22;17139;52.140;11.636;2022-07-23T09:51:52;22.60;45.90
9425;DHT22;17139;52.140;11.636;2022-07-23T09:54:32;22.10;47.00
9425;DHT22;17139;52.140;11.636;2022-07-23T09:57:04;21.90;48.00
9425;DHT22;17139;52.140;11.636;2022-07-23T09:59:34;22.50;46.00
9425;DHT22;17139;52.140;11.636;2022-07-23T10:02:02;22.20;47.10
9425;DHT22;17139;52.140;11.636;2022-07-23T10:04:32;22.20;47.90
9425;DHT22;17139;52.140;11.636;2022-07-23T10:07:01;22.70;46.20
9425;DHT22;17139;52.140;11.636;2022-07-23T10:09:32;22.60;46.90
9425;DHT22;17139;52.140;11.636;2022-07-23T10:12:01;22.50;47.10
9425;DHT22;17139;52.140;11.636;2022-07-23T10:14:35;22.90;46.10
9425;DHT22;17139;52.140;11.636;2022-07-23T10:17:03;22.70;47.00
9425;DHT22;17139;52.140;11.636;2022-07-23T10:19:31;22.60;47.50
9425;DHT22;17139;52.140;11.636;2022-07-23T10:22:00;22.50;47.60
9425;DHT22;17139;52.140;11.636;2022-07-23T10:24:41;22.60;47.80
9425;DHT22;17139;52.140;11.636;2022-07-23T10:30:02;22.70;47.60
9425;DHT22;17139;52.140;11.636;2022-07-23T10:32:39;22.70;47.80
9425;DHT22;17139;52.140;11.636;2022-07-23T10:35:12;22.90;47.50
9425;DHT22;17139;52.140;11.636;2022-07-23T10:37:43;23.00;47.50
9425;DHT22;17139;52.140;11.636;2022-07-23T10:40:14;23.00;47.30
9425;DHT22;17139;52.140;11.636;2022-07-23T10:42:43;23.00;47.00
9425;DHT22;17139;52.140;11.636;2022-07-23T10:45:28;22.80;47.70
9425;DHT22;17139;52.140;11.636;2022-07-23T10:48:12;22.70;47.10
9425;DHT22;17139;52.140;11.636;2022-07-23T10:50:41;22.60;47.40
9425;DHT22;17139;52.140;11.636;2022-07-23T10:53:14;22.60;47.50
9425;DHT22;17139;52.140;11.636;2022-07-23T10:55:51;22.80;47.30
9425;DHT22;17139;52.140;11.636;2022-07-23T10:58:33;23.00;47.20
9425;DHT22;17139;52.140;11.636;2022-07-23T11:01:32;23.10;47.20
9425;DHT22;17139;52.140;11.636;2022-07-23T11:04:00;23.70;45.30
9425;DHT22;17139;52.140;11.636;2022-07-23T11:09:29;23.60;46.30
9425;DHT22;17139;52.140;11.636;2022-07-23T11:15:04;23.90;45.30
9425;DHT22;17139;52.140;11.636;2022-07-23T11:17:33;23.70;45.70
9425;DHT22;17139;52.140;11.636;2022-07-23T11:20:19;23.60;46.20
9425;DHT22;17139;52.140;11.636;2022-07-23T11:22:49;23.60;46.30
9425;DHT22;17139;52.140;11.636;2022-07-23T11:25:34;23.40;46.60
9425;DHT22;17139;52.140;11.636;2022-07-23T11:28:14;23.40;46.70
9425;DHT22;17139;52.140;11.636;2022-07-23T11:30:43;23.40;46.50
9425;DHT22;17139;52.140;11.636;2022-07-23T11:33:19;23.80;44.20
9425;DHT22;17139;52.140;11.636;2022-07-23T11:35:49;23.70;45.30
9425;DHT22;17139;52.140;11.636;2022-07-23T11:38:18;23.50;45.60
9425;DHT22;17139;52.140;11.636;2022-07-23T11:40:47;23.70;44.20
9425;DHT22;17139;52.140;11.636;2022-07-23T11:43:15;23.50;45.00
9425;DHT22;17139;52.140;11.636;2022-07-23T11:45:46;23.40;45.60
9425;DHT22;17139;52.140;11.636;2022-07-23T11:48:18;23.40;45.60
9425;DHT22;17139;52.140;11.636;2022-07-23T11:50:46;23.40;45.70
9425;DHT22;17139;52.140;11.636;2022-07-23T11:53:13;23.40;45.80
9425;DHT22;17139;52.140;11.636;2022-07-23T11:55:47;23.40;45.90
9425;DHT22;17139;52.140;11.636;2022-07-23T11:58:15;23.30;45.80
9425;DHT22;17139;52.140;11.636;2022-07-23T12:00:45;23.40;45.80
9425;DHT22;17139;52.140;11.636;2022-07-23T12:03:13;23.70;43.80
9425;DHT22;17139;52.140;11.636;2022-07-23T12:05:41;23.50;44.80
9425;DHT22;17139;52.140;11.636;2022-07-23T12:08:09;23.40;45.30
9425;DHT22;17139;52.140;11.636;2022-07-23T12:10:39;23.40;44.60
9425;DHT22;17139;52.140;11.636;2022-07-23T12:13:10;23.30;45.10
9425;DHT22;17139;52.140;11.636;2022-07-23T12:15:39;23.20;45.30
9425;DHT22;17139;52.140;11.636;2022-07-23T12:18:10;23.20;45.30
9425;DHT22;17139;52.140;11.636;2022-07-23T12:20:39;23.30;45.40
9425;DHT22;17139;52.140;11.636;2022-07-23T12:23:09;23.50;45.20
9425;DHT22;17139;52.140;11.636;2022-07-23T12:25:38;23.60;45.00
9425;DHT22;17139;52.140;11.636;2022-07-23T12:28:09;23.60;45.00
9425;DHT22;17139;52.140;11.636;2022-07-23T12:30:38;23.70;44.80
9425;DHT22;17139;52.140;11.636;2022-07-23T12:33:09;23.80;44.50
9425;DHT22;17139;52.140;11.636;2022-07-23T12:35:39;23.70;44.50
9425;DHT22;17139;52.140;11.636;2022-07-23T12:38:08;23.70;44.50
9425;DHT22;17139;52.140;11.636;2022-07-23T12:40:41;23.80;44.60
9425;DHT22;17139;52.140;11.636;2022-07-23T12:43:11;23.80;44.50
9425;DHT22;17139;52.140;11.636;2022-07-23T12:45:45;23.70;44.50
9425;DHT22;17139;52.140;11.636;2022-07-23T12:48:19;23.70;44.50
9425;DHT22;17139;52.140;11.636;2022-07-23T12:50:52;23.70;44.80
9425;DHT22;17139;52.140;11.636;2022-07-23T12:53:22;23.70;44.50
9425;DHT22;17139;52.140;11.636;2022-07-23T12:55:51;23.60;44.40
9425;DHT22;17139;52.140;11.636;2022-07-23T12:58:23;23.70;44.60
9425;DHT22;17139;52.140;11.636;2022-07-23T13:01:02;23.70;44.50
9425;DHT22;17139;52.140;11.636;2022-07-23T13:03:34;23.70;44.50
9425;DHT22;17139;52.140;11.636;2022-07-23T13:06:04;24.30;41.30
9425;DHT22;17139;52.140;11.636;2022-07-23T13:08:32;23.90;42.70
9425;DHT22;17139;52.140;11.636;2022-07-23T13:11:00;23.60;43.20
9425;DHT22;17139;52.140;11.636;2022-07-23T13:13:29;23.60;43.80
9425;DHT22;17139;52.140;11.636;2022-07-23T13:15:57;23.60;43.90
9425;DHT22;17139;52.140;11.636;2022-07-23T13:18:25;23.60;43.80
9425;DHT22;17139;52.140;11.636;2022-07-23T13:20:55;23.70;44.00
9425;DHT22;17139;52.140;11.636;2022-07-23T13:23:23;23.80;43.90
9425;DHT22;17139;52.140;11.636;2022-07-23T13:25:51;23.80;43.50
9425;DHT22;17139;52.140;11.636;2022-07-23T13:28:20;23.80;43.30
9425;DHT22;17139;52.140;11.636;2022-07-23T13:30:50;23.90;43.60
9425;DHT22;17139;52.140;11.636;2022-07-23T13:33:18;23.90;43.30
9425;DHT22;17139;52.140;11.636;2022-07-23T13:35:46;24.20;41.60
9425;DHT22;17139;52.140;11.636;2022-07-23T13:38:16;24.00;42.70
9425;DHT22;17139;52.140;11.636;2022-07-23T13:40:45;24.00;42.90
9425;DHT22;17139;52.140;11.636;2022-07-23T13:43:15;24.10;42.10
9425;DHT22;17139;52.140;11.636;2022-07-23T13:45:43;24.10;42.80
9425;DHT22;17139;52.140;11.636;2022-07-23T13:48:11;24.10;43.10
9425;DHT22;17139;52.140;11.636;2022-07-23T13:50:39;24.10;43.00
9425;DHT22;17139;52.140;11.636;2022-07-23T13:53:09;24.20;42.90
9425;DHT22;17139;52.140;11.636;2022-07-23T13:55:39;24.20;42.70
9425;DHT22;17139;52.140;11.636;2022-07-23T13:58:08;24.20;42.70
9425;DHT22;17139;52.140;11.636;2022-07-23T14:00:37;24.20;42.90
9425;DHT22;17139;52.140;11.636;2022-07-23T14:03:05;24.20;42.60
9425;DHT22;17139;52.140;11.636;2022-07-23T14:05:33;24.20;42.70
9425;DHT22;17139;52.140;11.636;2022-07-23T14:08:00;24.90;38.80
9425;DHT22;17139;52.140;11.636;2022-07-23T14:10:27;24.60;40.90
9425;DHT22;17139;52.140;11.636;2022-07-23T14:12:56;24.60;41.40
9425;DHT22;17139;52.140;11.636;2022-07-23T14:15:25;25.10;38.80
9425;DHT22;17139;52.140;11.636;2022-07-23T14:17:54;24.90;40.50
9425;DHT22;17139;52.140;11.636;2022-07-23T14:20:21;24.80;41.10
9425;DHT22;17139;52.140;11.636;2022-07-23T14:22:49;24.70;41.30
9425;DHT22;17139;52.140;11.636;2022-07-23T14:25:17;24.60;41.40
9425;DHT22;17139;52.140;11.636;2022-07-23T14:27:45;24.50;41.50
9425;DHT22;17139;52.140;11.636;2022-07-23T14:30:13;24.50;41.90
9425;DHT22;17139;52.140;11.636;2022-07-23T14:32:41;24.50;42.30
9425;DHT22;17139;52.140;11.636;2022-07-23T14:35:09;24.40;41.70
9425;DHT22;17139;52.140;11.636;2022-07-23T14:37:39;24.40;41.10
9425;DHT22;17139;52.140;11.636;2022-07-23T14:40:07;24.30;41.40
9425;DHT22;17139;52.140;11.636;2022-07-23T14:42:34;24.20;41.60
9425;DHT22;17139;52.140;11.636;2022-07-23T14:45:02;24.20;41.40
9425;DHT22;17139;52.140;11.636;2022-07-23T14:47:32;24.10;41.20
9425;DHT22;17139;52.140;11.636;2022-07-23T14:49:59;24.00;41.50
9425;DHT22;17139;52.140;11.636;2022-07-23T14:52:26;23.90;41.50
9425;DHT22;17139;52.140;11.636;2022-07-23T14:54:54;23.90;41.40
9425;DHT22;17139;52.140;11.636;2022-07-23T14:57:21;23.90;41.70
9425;DHT22;17139;52.140;11.636;2022-07-23T14:59:48;23.90;41.80
9425;DHT22;17139;52.140;11.636;2022-07-23T15:02:16;24.00;42.10
9425;DHT22;17139;52.140;11.636;2022-07-23T15:04:44;24.00;41.70
9425;DHT22;17139;52.140;11.636;2022-07-23T15:07:12;24.00;41.50
9425;DHT22;17139;52.140;11.636;2022-07-23T15:09:39;24.60;38.60
9425;DHT22;17139;52.140;11.636;2022-07-23T15:12:07;24.30;40.10
9425;DHT22;17139;52.140;11.636;2022-07-23T15:14:34;24.20;40.70
9425;DHT22;17139;52.140;11.636;2022-07-23T15:17:01;24.60;38.50
9425;DHT22;17139;52.140;11.636;2022-07-23T15:19:29;24.40;40.10
9425;DHT22;17139;52.140;11.636;2022-07-23T15:21:57;24.20;40.50
9425;DHT22;17139;52.140;11.636;2022-07-23T15:24:26;24.20;40.90
9425;DHT22;17139;52.140;11.636;2022-07-23T15:26:53;24.20;41.30
9425;DHT22;17139;52.140;11.636;2022-07-23T15:29:20;24.10;41.00
9425;DHT22;17139;52.140;11.636;2022-07-23T15:31:48;24.00;41.20
9425;DHT22;17139;52.140;11.636;2022-07-23T15:34:15;23.90;41.40
9425;DHT22;17139;52.140;11.636;2022-07-23T15:36:43;23.80;41.10
9425;DHT22;17139;52.140;11.636;2022-07-23T15:39:12;23.90;40.60
9425;DHT22;17139;52.140;11.636;2022-07-23T15:41:39;23.90;40.90
9425;DHT22;17139;52.140;11.636;2022-07-23T15:44:06;23.80;41.20
9425;DHT22;17139;52.140;11.636;2022-07-23T15:46:33;23.80;41.20
9425;DHT22;17139;52.140;11.636;2022-07-23T15:49:01;23.80;41.30